Versailles, IN (47042)

10:58 PM EDT on September 29, 2016 (GMT -0400)
APRSWXNET | | Change Station

Elev 954 ft 39.07 °N, 85.25 °W | Updated 15 minutes ago

Overcast
Overcast
56 °F
Feels Like 56 °F
N
1
Wind Variable Wind from NE
Gusts 2.0 mph

Today
High -- | Low -- °F
--% Chance of Precip.
Yesterday
High -- | Low -- °F
Precip. -- in
Pressure 30.06 in
Visibility 10.0 miles
Clouds Scattered Clouds 4300 ft
Mostly Cloudy 5500 ft
Overcast 8500 ft
Dew Point 54 °F
Humidity 93%
Rainfall in
Snow Depth Not available.
7:35 AM 7:26 PM
Waning Crescent, 1% visible
METAR KCVG 300252Z 33005KT 10SM SCT043 BKN055 OVC085 15/14 A3007 RMK AO2 CIG 041 36R SLP179 60001 T01500139 58001
Pressure 30.06 in
Visibility 10.0 miles
Clouds Scattered Clouds 4300 ft
Mostly Cloudy 5500 ft
Overcast 8500 ft
Dew Point 54 °F
Humidity 93%
Rainfall in
Snow Depth Not available.
7:35 AM 7:26 PM
Waning Crescent, 1% visible
METAR KCVG 300252Z 33005KT 10SM SCT043 BKN055 OVC085 15/14 A3007 RMK AO2 CIG 041 36R SLP179 60001 T01500139 58001

10-Day Weather Forecast

Almanac

Astronomy

Sep. 29, 2016 Rise Set
Actual Time
Civil Twilight
Nautical Twilight
Astronomical Twilight
Moon
Length of Visible Light
Length of Day
Tomorrow will be .
, % of the Moon is Illuminated

Today's Extremes

State Highs State Lows

Community

WunderPhotos

Upload Photos

1,942,645 photos uploaded!

WunderBlog® & News

Nearby

Air Quality

  Air Quality AQ Index Pollutant
Not available.

Snow Depth

Station Depth Elevation

Earthquake Activity

City Distance Mag. Time & Date
Minimum magnitude displayed is 2.5.

Coastal Water Temperatures

Place Temperature

Stations

Nearby Weather Stations

Station Location Temp. Windchill Dew Point Humidity Wind Precip. Elev Updated Type
                   

Watches & Warnings

There are currently no watches in effect.